Iroquois Falls, Canada
Current Conditions -  °F | °C
As of 3:00 AM on Saturday 20 Dec 2014 (Local Time) from CYTS Reporting Station
Ice Pellets Ice Pellets  
Wind Chill: -6°   Ceiling: 100
Heat Index: -6°   Visibility: 0.75mi
Dew Point: -11°   Wind: 0mph
Humidity: 77%   Direction: NA
Pressure: 30.27"   Gusts: NA
Location:  48.77°N, 80.67°W
Report Text: CYTS 200800Z 00000KT 3/4SM R03/4500VP6000FT/U IC BR VV001 M21/M24 A3027 RMK FG8 SLP280
Loading
Personal Weather Stations






























Interactive Weather Map New forecast layout! Learn more

10-Day Weather Forecast

Advertisements
Track Severe Weather on mobile